Startpagina
METAR-TAF:

METAR-TAF

Vliegvelden :

Flughafen Frankfurt-Hahn

Hahn, Duitsland

breedte: 49-57N, lengte: 007-16E, hoogte: 491 m

Actueel weer

Dit bericht is 17 minuten geleden gemaakt, om 02:50 UTC
Wind 7 kt uit het zuidzuidoosten
Temperatuur 17°C
Vochtigheid 77%
Druk 1014 hPa
Zicht 10 km of meer
geen wolken onder 1500 m en geen cumulonimbus

METAR: EDFH 170250Z 15007KT CAVOK 17/13 Q1014

Tijdstip: 05:07 (03:07 UTC)

Verwachting

Dit bericht is 4 uur en het 7 minuten geleden gemaakt, om 23:00 UTC
Verwachting geldig van 17 om 00 UTC tot 17 om 24 UTC
Wind 6 kt uit het noorden
Zicht 10 km of meer
geen wolken onder 1500 m en geen cumulonimbus
Kans 40% :
Tijdelijke
van 17 om 12 UTC tot 17 om 20 UTC
Wind 15 kt uit het westen met uitschieters tot 25 kt
Verspreide wolken op 3000 ft, Cumulonimbus.
onweer, regen

TAF: EDFH 162300Z 1700/1724 35006KT CAVOK PROB40 TEMPO 1712/1720 28015G25KT TSRA SCT030CB

Waarnemingen en weersverwachtingen van meer dan 4000 vliegvelden (METAR en TAF).

De beschikbare stations zijn de gele en rode punten op de kaart.

Ga met uw muis naar het station om de naam te zien.

Klik dan om waarnemingen en weersverwachtingen te zien.

kaart wijzigen: klik op de groene knoppen met een zwart kruis om in te zoomen, op de groene knop met een streepje om uit te zoomen of op de groene pijlen voor aangrenzende kaarten.


METAR-TAF: